Hartshorn, Missouri
Current Conditions -  °F | °C
As of 12:53 PM on Sunday 21 Dec 2014 (Local Time) from KUNO Reporting Station
Overcast Overcast  
Wind Chill: 34°   Ceiling: 3600
Heat Index: 40°   Visibility: 10mi
Dew Point: 34°   Wind: 8mph
Humidity: 79%   Direction: 150°SSE
Pressure: 30.05"   Gusts: NA
Location:  37.26°N, 91.67°W
Report Text: KUNO 211853Z AUTO 15007KT 10SM SCT011 OVC036 04/01 A3005 RMK AO2 SLP182 T00440011 $
Loading
Personal Weather Stations






























Interactive Weather Map New forecast layout! Learn more

10-Day Weather Forecast

Advertisements
Track Severe Weather on mobile